createdAt,value
2018-12-07T00:00:12.103Z,100986.22
2018-12-07T00:02:19.481Z,100990.83
2018-12-07T00:04:27.159Z,100985.23
2018-12-07T00:06:39.017Z,100986.09
2018-12-07T00:08:46.809Z,100984.28
2018-12-07T00:10:54.540Z,100974.97
2018-12-07T00:13:02.442Z,100962.37
2018-12-07T00:15:14.199Z,100966.56
2018-12-07T00:17:21.895Z,100960.33
2018-12-07T00:19:30.615Z,100961.74
2018-12-07T00:21:35.351Z,100967.41
2018-12-07T00:23:43.343Z,100964.84
2018-12-07T00:25:51.207Z,100961.89
2018-12-07T00:28:03.200Z,100962.64
2018-12-07T00:30:10.868Z,100955.45
2018-12-07T00:32:22.839Z,100952.02
2018-12-07T00:34:37.583Z,100951.25
2018-12-07T00:36:42.783Z,100946.70
2018-12-07T00:38:50.631Z,100940.39
2018-12-07T00:40:58.239Z,100935.67
2018-12-07T00:43:10.025Z,100935.94
2018-12-07T00:45:22.047Z,100932.57
2018-12-07T00:47:33.626Z,100935.99
2018-12-07T00:49:41.471Z,100935.42
2018-12-07T00:51:53.360Z,100933.05
2018-12-07T00:54:01.333Z,100929.23
2018-12-07T00:56:09.469Z,100922.17
2018-12-07T00:58:17.104Z,100916.48
2018-12-07T01:00:24.824Z,100924.87
2018-12-07T01:02:32.791Z,100922.50
2018-12-07T01:04:40.398Z,100924.22
2018-12-07T01:06:48.245Z,100923.73
2018-12-07T01:08:55.869Z,100919.92
2018-12-07T01:11:03.838Z,100908.77
2018-12-07T01:13:16.156Z,100903.86
2018-12-07T01:15:24.071Z,100903.17
2018-12-07T01:17:35.801Z,100918.25
2018-12-07T01:19:40.966Z,100921.31
2018-12-07T01:21:52.987Z,100912.52
2018-12-07T01:26:04.985Z,100909.46
2018-12-07T01:30:17.191Z,100897.42
2018-12-07T01:34:29.864Z,100891.36
2018-12-07T01:36:37.807Z,100891.44
2018-12-07T01:46:59.539Z,100857.05
2018-12-07T01:49:04.565Z,100880.67
2018-12-07T01:51:16.482Z,100881.14
2018-12-07T01:53:25.140Z,100879.59
2018-12-07T01:55:33.306Z,100876.18
2018-12-07T01:57:45.281Z,100875.17
2018-12-07T01:59:53.282Z,100868.45
2018-12-07T02:02:01.080Z,100866.37
2018-12-07T02:04:13.101Z,100863.41
2018-12-07T02:06:21.045Z,100862.87
2018-12-07T02:08:26.174Z,100861.03
2018-12-07T02:10:29.190Z,100857.47
2018-12-07T02:12:37.291Z,100854.22
2018-12-07T02:14:45.148Z,100849.86
2018-12-07T02:16:50.064Z,100842.58
2018-12-07T02:18:57.858Z,100842.41
2018-12-07T02:21:05.469Z,100842.08
2018-12-07T02:23:13.372Z,100829.94
2018-12-07T02:25:21.178Z,100836.60
2018-12-07T02:27:31.093Z,100834.91
2018-12-07T02:29:38.496Z,100831.39
2018-12-07T02:31:50.127Z,100826.87
2018-12-07T02:33:57.863Z,100822.80
2018-12-07T02:36:05.704Z,100815.66
2018-12-07T02:38:13.744Z,100816.06
2018-12-07T02:40:18.660Z,100822.24
2018-12-07T02:42:23.599Z,100819.16
2018-12-07T02:44:28.375Z,100814.13
2018-12-07T02:46:36.031Z,100808.72
2018-12-07T02:48:41.269Z,100804.85
2018-12-07T02:50:49.474Z,100804.47
2018-12-07T02:52:57.045Z,100799.53
2018-12-07T02:55:05.030Z,100795.17
2018-12-07T02:57:12.767Z,100783.00
2018-12-07T02:59:20.384Z,100775.97
2018-12-07T03:01:25.256Z,100773.24
2018-12-07T03:03:32.761Z,100766.52
2018-12-07T03:05:37.629Z,100766.97
2018-12-07T03:07:45.667Z,100760.03
2018-12-07T03:09:53.439Z,100761.88
2018-12-07T03:12:01.160Z,100763.83
2018-12-07T03:14:12.684Z,100766.06
2018-12-07T03:16:17.421Z,100756.64
2018-12-07T03:18:30.228Z,100752.05
2018-12-07T03:20:38.266Z,100747.06
2018-12-07T03:22:45.811Z,100744.52
2018-12-07T03:24:53.587Z,100740.41
2018-12-07T03:27:01.004Z,100734.95
2018-12-07T03:29:08.895Z,100735.71
2018-12-07T03:31:13.820Z,100736.31
2018-12-07T03:33:21.660Z,100731.77
2018-12-07T03:35:29.589Z,100731.03
2018-12-07T03:37:37.129Z,100724.95
2018-12-07T03:39:45.258Z,100725.61
2018-12-07T03:41:53.204Z,100730.62
2018-12-07T03:44:01.104Z,100726.19
2018-12-07T03:46:08.931Z,100720.11
2018-12-07T03:48:16.899Z,100720.44
2018-12-07T03:50:25.241Z,100716.69
2018-12-07T03:52:33.010Z,100719.98
2018-12-07T03:54:40.972Z,100703.12
2018-12-07T03:56:49.615Z,100717.30
2018-12-07T03:58:57.270Z,100711.35
2018-12-07T04:01:05.410Z,100714.94
2018-12-07T04:03:13.271Z,100712.68
2018-12-07T04:05:20.907Z,100715.00
2018-12-07T04:07:28.529Z,100714.02
2018-12-07T04:09:36.120Z,100700.88
2018-12-07T04:11:43.963Z,100697.72
2018-12-07T04:13:51.749Z,100714.87
2018-12-07T04:15:56.563Z,100697.93
2018-12-07T04:18:04.463Z,100702.28
2018-12-07T04:20:12.413Z,100688.88
2018-12-07T04:22:20.346Z,100695.01
2018-12-07T04:24:28.186Z,100699.27
2018-12-07T04:26:35.887Z,100700.52
2018-12-07T04:28:43.777Z,100699.44
2018-12-07T04:30:53.493Z,100689.42
2018-12-07T04:33:01.073Z,100689.59
2018-12-07T04:35:12.831Z,100682.62
2018-12-07T04:37:20.808Z,100690.24
2018-12-07T04:39:28.688Z,100688.10
2018-12-07T04:41:36.307Z,100682.70
2018-12-07T04:43:44.222Z,100691.75
2018-12-07T04:45:52.084Z,100686.52
2018-12-07T04:48:00.084Z,100685.59
2018-12-07T04:50:08.099Z,100685.29
2018-12-07T04:52:16.085Z,100685.55
2018-12-07T04:54:27.791Z,100683.19
2018-12-07T04:56:33.710Z,100688.16
2018-12-07T04:58:41.917Z,100687.36
2018-12-07T05:00:50.872Z,100679.75
2018-12-07T05:02:58.674Z,100686.50
2018-12-07T05:05:11.282Z,100679.09
2018-12-07T05:07:16.796Z,100676.50
2018-12-07T05:09:24.922Z,100676.57
2018-12-07T05:11:29.716Z,100672.89
2018-12-07T05:13:37.568Z,100673.99
2018-12-07T05:15:45.327Z,100671.70
2018-12-07T05:17:52.956Z,100671.98
2018-12-07T05:19:57.643Z,100667.56
2018-12-07T05:22:05.321Z,100669.83
2018-12-07T05:24:20.299Z,100673.11
2018-12-07T05:26:27.835Z,100642.23
2018-12-07T05:28:35.741Z,100667.17
2018-12-07T05:30:47.387Z,100666.51
2018-12-07T05:32:55.436Z,100666.86
2018-12-07T05:35:03.301Z,100664.95
2018-12-07T05:37:17.949Z,100641.27
2018-12-07T05:39:22.678Z,100661.08
2018-12-07T05:41:30.111Z,100666.22
2018-12-07T05:43:33.236Z,100674.20
2018-12-07T05:45:45.023Z,100666.59
2018-12-07T05:47:56.897Z,100668.69
2018-12-07T05:50:02.439Z,100663.46
2018-12-07T05:52:07.415Z,100664.30
2018-12-07T05:54:15.449Z,100666.50
2018-12-07T05:56:23.088Z,100670.30
2018-12-07T05:58:30.882Z,100639.75
2018-12-07T06:00:38.506Z,100663.86
2018-12-07T06:02:46.288Z,100662.77
2018-12-07T06:04:54.197Z,100668.19
2018-12-07T06:07:02.029Z,100666.05
2018-12-07T06:09:10.051Z,100666.02
2018-12-07T06:11:21.996Z,100658.49
2018-12-07T06:15:32.680Z,100655.30
2018-12-07T06:24:03.424Z,100646.13
2018-12-07T06:28:14.427Z,100645.95
2018-12-07T06:32:25.962Z,100651.77
2018-12-07T06:34:34.195Z,100647.61
2018-12-07T06:36:46.020Z,100649.13
2018-12-07T06:38:57.723Z,100645.89
2018-12-07T06:41:02.540Z,100647.81
2018-12-07T06:43:10.327Z,100637.39
2018-12-07T06:45:18.108Z,100636.82
2018-12-07T06:47:25.927Z,100640.02
2018-12-07T06:49:33.812Z,100636.18
2018-12-07T06:51:41.492Z,100634.98
2018-12-07T06:53:49.324Z,100637.95
2018-12-07T06:56:04.031Z,100629.30
2018-12-07T06:58:11.465Z,100631.75
2018-12-07T07:00:19.075Z,100632.17
2018-12-07T07:02:26.703Z,100630.29
2018-12-07T07:04:34.530Z,100624.44
2018-12-07T07:06:42.479Z,100621.80
2018-12-07T07:08:54.358Z,100628.41
2018-12-07T07:11:01.822Z,100621.45
2018-12-07T07:13:09.695Z,100620.16
2018-12-07T07:15:24.734Z,100621.05
2018-12-07T07:17:29.333Z,100619.91
2018-12-07T07:19:41.204Z,100621.97
2018-12-07T07:21:48.865Z,100614.38
2018-12-07T07:23:56.503Z,100622.05
2018-12-07T07:26:04.339Z,100612.78
2018-12-07T07:28:12.378Z,100612.14
2018-12-07T07:30:21.957Z,100616.61
2018-12-07T07:32:29.792Z,100623.70
2018-12-07T07:36:41.267Z,100622.84
2018-12-07T07:38:48.689Z,100612.66
2018-12-07T07:40:56.530Z,100612.80
2018-12-07T07:43:04.435Z,100611.83
2018-12-07T07:45:19.080Z,100604.03
2018-12-07T07:47:26.963Z,100599.06
2018-12-07T07:49:38.772Z,100600.13
2018-12-07T07:51:46.983Z,100594.25
2018-12-07T07:53:54.524Z,100595.47
2018-12-07T07:56:02.664Z,100592.44
2018-12-07T07:58:10.414Z,100590.35
2018-12-07T08:00:18.279Z,100586.25
2018-12-07T08:02:30.191Z,100589.09
2018-12-07T08:04:38.087Z,100586.41
2018-12-07T08:06:45.760Z,100583.03
2018-12-07T08:08:53.501Z,100582.27
2018-12-07T08:10:58.255Z,100581.11
2018-12-07T08:13:06.931Z,100560.00
2018-12-07T08:15:14.242Z,100571.31
2018-12-07T08:17:22.158Z,100568.22
2018-12-07T08:19:31.420Z,100563.30
2018-12-07T08:21:39.196Z,100562.39
2018-12-07T08:23:46.455Z,100566.92
2018-12-07T08:25:54.383Z,100562.58
2018-12-07T08:28:06.283Z,100557.58
2018-12-07T08:30:14.272Z,100558.77
2018-12-07T08:32:26.139Z,100561.39
2018-12-07T08:34:35.950Z,100554.72
2018-12-07T08:38:49.504Z,100553.64
2018-12-07T08:47:05.308Z,100549.13
2018-12-07T08:49:15.056Z,100543.55
2018-12-07T08:53:29.947Z,100542.42
2018-12-07T09:01:50.400Z,100533.77
2018-12-07T09:05:58.876Z,100531.63
2018-12-07T09:08:06.285Z,100522.36
2018-12-07T09:10:13.749Z,100526.75
2018-12-07T09:12:18.988Z,100518.28
2018-12-07T09:14:23.381Z,100521.36
2018-12-07T09:16:36.130Z,100520.73
2018-12-07T09:18:43.849Z,100514.17
2018-12-07T09:20:55.511Z,100510.21
2018-12-07T09:23:03.726Z,100501.59
2018-12-07T09:25:11.563Z,100496.98
2018-12-07T09:27:19.384Z,100492.05
2018-12-07T09:29:23.948Z,100486.11
2018-12-07T09:31:32.662Z,100490.55
2018-12-07T09:33:40.480Z,100484.33
2018-12-07T09:35:48.538Z,100485.14
2018-12-07T09:37:56.435Z,100480.51
2018-12-07T09:40:04.182Z,100465.62
2018-12-07T09:42:12.622Z,100476.78
2018-12-07T09:44:20.647Z,100465.25
2018-12-07T09:46:28.213Z,100465.25
2018-12-07T09:48:33.195Z,100459.80
2018-12-07T09:50:41.719Z,100463.08
2018-12-07T09:52:49.248Z,100432.41
2018-12-07T09:54:54.462Z,100459.86
2018-12-07T09:57:03.184Z,100459.25
2018-12-07T09:59:11.906Z,100457.77
2018-12-07T10:01:20.073Z,100447.41
2018-12-07T10:03:27.872Z,100450.19
2018-12-07T10:05:35.912Z,100437.97
2018-12-07T10:07:43.412Z,100449.11
2018-12-07T10:09:51.311Z,100435.74
2018-12-07T10:11:59.129Z,100432.31
2018-12-07T10:14:07.071Z,100438.04
2018-12-07T10:16:14.880Z,100429.83
2018-12-07T10:18:22.419Z,100420.23
2018-12-07T10:20:34.087Z,100416.48
2018-12-07T10:22:41.523Z,100412.05
2018-12-07T10:24:49.378Z,100409.91
2018-12-07T10:27:01.428Z,100397.70
2018-12-07T10:29:09.678Z,100403.68
2018-12-07T10:31:17.453Z,100397.83
2018-12-07T10:33:25.430Z,100394.01
2018-12-07T10:35:33.308Z,100386.50
2018-12-07T10:37:41.962Z,100385.27
2018-12-07T10:39:50.084Z,100388.00
2018-12-07T10:41:57.903Z,100379.20
2018-12-07T10:44:05.567Z,100378.88
2018-12-07T10:46:13.215Z,100366.30
2018-12-07T10:48:21.275Z,100362.95
2018-12-07T10:50:29.156Z,100363.36
2018-12-07T10:52:36.744Z,100358.02
2018-12-07T10:54:44.445Z,100351.36
2018-12-07T10:56:52.093Z,100339.36
2018-12-07T10:58:56.892Z,100339.09
2018-12-07T11:01:07.694Z,100339.59
2018-12-07T11:03:21.852Z,100334.82
2018-12-07T11:05:35.852Z,100332.33
2018-12-07T11:07:49.344Z,100331.47
2018-12-07T11:10:03.222Z,100323.10
2018-12-07T11:12:18.119Z,100311.80
2018-12-07T11:14:32.106Z,100309.62
2018-12-07T11:16:45.727Z,100317.27
2018-12-07T11:18:59.451Z,100309.56
2018-12-07T11:21:13.164Z,100301.69
2018-12-07T11:23:22.845Z,100304.99
2018-12-07T11:25:37.040Z,100301.19
2018-12-07T11:33:25.016Z,100292.16
2018-12-07T11:35:34.575Z,100284.59
2018-12-07T11:37:42.014Z,100284.52
2018-12-07T11:39:50.158Z,100277.48
2018-12-07T11:41:58.091Z,100275.10
2018-12-07T11:44:07.920Z,100272.88
2018-12-07T11:46:15.731Z,100273.83
2018-12-07T11:48:27.356Z,100263.62
2018-12-07T11:50:32.171Z,100274.67
2018-12-07T11:52:43.762Z,100258.83
2018-12-07T11:54:51.979Z,100249.47
2018-12-07T11:57:00.510Z,100252.27
2018-12-07T11:59:08.377Z,100228.73
2018-12-07T12:01:16.164Z,100252.70
2018-12-07T12:03:23.938Z,100248.07
2018-12-07T12:05:31.456Z,100238.36
2018-12-07T12:07:36.384Z,100235.06
2018-12-07T12:09:44.141Z,100230.61
2018-12-07T12:11:51.927Z,100225.12
2018-12-07T12:13:59.927Z,100217.48
2018-12-07T12:16:07.699Z,100223.91
2018-12-07T12:18:15.363Z,100221.44
2018-12-07T12:20:25.028Z,100214.77
2018-12-07T12:22:33.675Z,100210.71
2018-12-07T12:24:41.574Z,100203.98
2018-12-07T12:26:49.980Z,100198.45
2018-12-07T12:28:58.347Z,100201.81
2018-12-07T12:31:06.157Z,100193.03
2018-12-07T12:33:13.756Z,100190.86
2018-12-07T12:35:21.698Z,100193.99
2018-12-07T12:37:29.500Z,100186.66
2018-12-07T12:39:37.409Z,100188.55
2018-12-07T12:41:47.263Z,100179.03
2018-12-07T12:44:01.967Z,100178.24
2018-12-07T12:46:10.667Z,100172.33
2018-12-07T12:48:25.568Z,100169.55
2018-12-07T12:50:35.306Z,100176.69
2018-12-07T12:52:42.947Z,100166.91
2018-12-07T12:54:50.756Z,100171.98
2018-12-07T12:57:05.470Z,100167.21
2018-12-07T12:59:13.556Z,100161.24
2018-12-07T13:01:15.975Z,100160.78
2018-12-07T13:03:23.698Z,100160.28
2018-12-07T13:05:32.062Z,100157.39
2018-12-07T13:07:39.893Z,100149.95
2018-12-07T13:09:47.755Z,100146.51
2018-12-07T13:11:56.404Z,100141.76
2018-12-07T13:14:04.090Z,100134.52
2018-12-07T13:16:16.438Z,100125.13
2018-12-07T13:18:23.952Z,100119.80
2018-12-07T13:20:33.793Z,100123.83
2018-12-07T13:22:38.776Z,100116.70
2018-12-07T13:24:46.258Z,100112.93
2018-12-07T13:26:54.464Z,100112.31
2018-12-07T13:29:01.869Z,100106.41
2018-12-07T13:31:09.664Z,100106.77
2018-12-07T13:33:17.401Z,100103.64
2018-12-07T13:35:26.356Z,100098.77
2018-12-07T13:37:34.131Z,100089.16
2018-12-07T13:39:42.124Z,100092.19
2018-12-07T13:45:55.696Z,100080.37
2018-12-07T13:50:15.242Z,100073.85
2018-12-07T13:52:23.675Z,100063.28
2018-12-07T13:54:31.195Z,100058.42
2018-12-07T13:56:41.608Z,100055.17
2018-12-07T13:58:52.038Z,100046.00
2018-12-07T14:00:56.938Z,100045.81
2018-12-07T14:03:07.005Z,100043.48
2018-12-07T14:05:14.946Z,100040.16
2018-12-07T14:07:29.641Z,100042.76
2018-12-07T14:09:38.462Z,100044.57
2018-12-07T14:11:45.991Z,100041.25
2018-12-07T14:13:55.069Z,100048.34
2018-12-07T14:16:03.029Z,100043.36
2018-12-07T14:18:10.557Z,100038.64
2018-12-07T14:20:18.862Z,100034.35
2018-12-07T14:22:27.522Z,100028.83
2018-12-07T14:24:35.208Z,100030.62
2018-12-07T14:26:43.178Z,100024.00
2018-12-07T14:28:51.987Z,100024.02
2018-12-07T14:31:06.425Z,100015.40
2018-12-07T14:33:14.375Z,100005.16
2018-12-07T14:35:22.290Z,100010.78
2018-12-07T14:37:29.966Z,100001.28
2018-12-07T14:39:37.744Z,99997.45
2018-12-07T14:41:45.604Z,99996.20
2018-12-07T14:43:53.322Z,99997.78
2018-12-07T14:46:01.473Z,99994.57
2018-12-07T14:48:10.052Z,99999.17
2018-12-07T14:50:21.862Z,99986.99
2018-12-07T14:52:29.628Z,99976.36
2018-12-07T14:54:37.487Z,99973.48
2018-12-07T14:56:45.382Z,99971.31
2018-12-07T14:58:53.794Z,99968.51
2018-12-07T15:01:01.317Z,99969.45
2018-12-07T15:03:06.102Z,99966.34
2018-12-07T15:05:20.777Z,99971.86
2018-12-07T15:07:28.643Z,99957.70
2018-12-07T15:09:41.534Z,99947.33
2018-12-07T15:11:56.530Z,99948.34
2018-12-07T15:14:04.770Z,99947.59
2018-12-07T15:16:12.769Z,99938.98
2018-12-07T15:18:20.669Z,99932.84
2018-12-07T15:20:29.895Z,99925.16
2018-12-07T15:22:38.043Z,99921.02
2018-12-07T15:24:45.916Z,99918.34
2018-12-07T15:26:54.642Z,99911.77
2018-12-07T15:29:03.215Z,99913.84
2018-12-07T15:31:14.663Z,99918.48
2018-12-07T15:33:22.303Z,99905.26
2018-12-07T15:35:30.046Z,99892.97
2018-12-07T15:37:38.875Z,99892.53
2018-12-07T15:39:46.745Z,99890.52
2018-12-07T15:41:55.761Z,99894.31
2018-12-07T15:44:03.458Z,99895.30
2018-12-07T15:46:11.980Z,99880.05
2018-12-07T15:48:20.044Z,99876.94
2018-12-07T15:50:27.616Z,99874.50
2018-12-07T15:52:35.247Z,99873.02
2018-12-07T15:54:43.435Z,99861.84
2018-12-07T15:56:51.082Z,99852.00
2018-12-07T15:58:58.734Z,99846.09
2018-12-07T16:01:06.432Z,99839.98
2018-12-07T16:03:17.452Z,99833.78
2018-12-07T16:05:26.262Z,99830.34
2018-12-07T16:07:34.683Z,99828.21
2018-12-07T16:09:42.389Z,99826.16
2018-12-07T16:11:51.232Z,99821.41
2018-12-07T16:13:59.709Z,99815.75
2018-12-07T16:16:08.478Z,99808.67
2018-12-07T16:18:17.260Z,99808.27
2018-12-07T16:20:32.063Z,99806.40
2018-12-07T16:22:40.326Z,99793.88
2018-12-07T16:24:57.205Z,99779.89
2018-12-07T16:27:05.859Z,99783.28
2018-12-07T16:29:07.619Z,99773.15
2018-12-07T16:31:15.526Z,99760.95
2018-12-07T16:33:23.175Z,99762.30
2018-12-07T16:35:31.209Z,99753.27
2018-12-07T16:37:39.563Z,99749.84
2018-12-07T16:39:49.356Z,99736.77
2018-12-07T16:41:57.136Z,99730.28
2018-12-07T16:44:05.451Z,99730.86
2018-12-07T16:46:14.237Z,99718.45
2018-12-07T16:48:28.947Z,99719.72
2018-12-07T16:50:37.085Z,99714.86
2018-12-07T16:52:52.915Z,99714.91
2018-12-07T16:55:11.439Z,99703.81
2018-12-07T16:57:19.370Z,99696.59
2018-12-07T16:59:28.378Z,99691.94
2018-12-07T17:01:36.090Z,99689.88
2018-12-07T17:03:46.001Z,99694.84
2018-12-07T17:06:02.637Z,99688.53
2018-12-07T17:08:24.234Z,99690.28
2018-12-07T17:10:46.363Z,99699.25
2018-12-07T17:21:26.150Z,99696.03
2018-12-07T17:31:52.462Z,99686.27
2018-12-07T17:34:14.030Z,99682.97
2018-12-07T17:36:36.250Z,99685.47
2018-12-07T17:41:40.603Z,99679.17
2018-12-07T17:44:02.689Z,99671.34
2018-12-07T17:46:24.287Z,99664.66
2018-12-07T17:48:46.810Z,99672.11
2018-12-07T17:51:09.021Z,99667.80
2018-12-07T17:53:30.889Z,99663.63
2018-12-07T17:55:52.941Z,99660.61
2018-12-07T17:58:14.528Z,99659.91
2018-12-07T18:00:39.257Z,99655.43
2018-12-07T18:03:04.831Z,99651.47
2018-12-07T18:05:26.828Z,99652.80
2018-12-07T18:07:45.667Z,99641.95
2018-12-07T18:10:07.814Z,99640.88
2018-12-07T18:12:33.522Z,99639.06
2018-12-07T18:14:45.759Z,99634.64
2018-12-07T18:17:08.018Z,99631.44
2018-12-07T18:19:30.140Z,99631.34
2018-12-07T18:21:51.678Z,99631.84
2018-12-07T18:24:10.413Z,99633.39
2018-12-07T18:26:31.811Z,99624.89
2018-12-07T18:28:53.563Z,99637.84
2018-12-07T18:31:14.046Z,99625.68
2018-12-07T18:33:34.522Z,99617.29
2018-12-07T18:36:02.453Z,99594.27
2018-12-07T18:38:26.869Z,99613.68
2018-12-07T18:40:48.287Z,99609.17
2018-12-07T18:43:03.564Z,99599.92
2018-12-07T18:45:18.067Z,99564.23
2018-12-07T18:47:29.887Z,99592.78
2018-12-07T18:49:46.536Z,99594.97
2018-12-07T18:52:01.496Z,99594.27
2018-12-07T18:54:13.490Z,99583.05
2018-12-07T18:56:23.793Z,99586.61
2018-12-07T18:58:38.884Z,99594.48
2018-12-07T19:00:54.710Z,99582.65
2018-12-07T19:03:09.687Z,99589.66
2018-12-07T19:05:35.252Z,99590.08
2018-12-07T19:08:00.931Z,99584.09
2018-12-07T19:10:22.727Z,99577.53
2018-12-07T19:12:44.804Z,99577.50
2018-12-07T19:15:06.878Z,99573.31
2018-12-07T19:17:19.096Z,99577.55
2018-12-07T19:19:41.427Z,99574.36
2018-12-07T19:22:09.370Z,99570.28
2018-12-07T19:24:31.132Z,99568.54
2018-12-07T19:26:59.867Z,99568.09
2018-12-07T19:29:25.539Z,99564.97
2018-12-07T19:31:49.971Z,99562.77
2018-12-07T19:34:24.317Z,99546.00
2018-12-07T19:39:41.566Z,99540.94
2018-12-07T19:42:03.124Z,99533.16
2018-12-07T19:44:24.749Z,99542.38
2018-12-07T19:46:55.309Z,99536.82
2018-12-07T19:49:17.204Z,99523.75
2018-12-07T19:51:39.690Z,99514.34
2018-12-07T19:54:03.939Z,99517.98
2018-12-07T19:56:27.266Z,99515.81
2018-12-07T19:58:51.321Z,99504.21
2018-12-07T20:01:13.224Z,99503.22
2018-12-07T20:03:35.291Z,99490.95
2018-12-07T20:06:00.319Z,99491.11
2018-12-07T20:13:38.190Z,99481.01
2018-12-07T20:16:07.102Z,99486.84
2018-12-07T20:18:43.497Z,99481.47
2018-12-07T20:21:12.199Z,99474.55
2018-12-07T20:23:35.188Z,99464.76
2018-12-07T20:26:00.180Z,99466.63
2018-12-07T20:28:23.165Z,99468.98
2018-12-07T20:33:27.357Z,99464.23
2018-12-07T20:35:58.273Z,99465.05
2018-12-07T20:41:04.816Z,99471.57
2018-12-07T20:43:36.295Z,99460.56
2018-12-07T21:29:57.085Z,99412.12
2018-12-07T21:35:07.108Z,99416.38
2018-12-07T22:32:06.596Z,99388.83
2018-12-07T22:34:28.960Z,99388.92
2018-12-07T22:39:26.112Z,99394.14
2018-12-07T22:44:30.143Z,99395.36
2018-12-07T22:52:05.772Z,99397.28
2018-12-07T23:02:38.561Z,99397.02
2018-12-07T23:13:01.672Z,99412.78
2018-12-07T23:18:08.340Z,99418.14
2018-12-07T23:20:29.916Z,99425.41
2018-12-07T23:22:57.777Z,99424.85
2018-12-07T23:25:22.681Z,99438.83
2018-12-07T23:27:46.688Z,99452.40
2018-12-07T23:30:08.836Z,99460.06
2018-12-07T23:32:30.302Z,99467.00
2018-12-07T23:34:52.367Z,99485.38
2018-12-07T23:37:13.963Z,99473.55
2018-12-07T23:39:35.824Z,99487.62
2018-12-07T23:41:57.770Z,99482.73
2018-12-07T23:44:20.693Z,99482.30
2018-12-07T23:49:27.788Z,99523.28
2018-12-07T23:51:56.806Z,99518.22
2018-12-07T23:54:31.286Z,99517.86
2018-12-07T23:56:53.829Z,99544.32
2018-12-07T23:59:16.220Z,99549.84
